createdAt,value
2023-03-01T00:01:08.011Z,27.59
2023-03-01T00:03:35.293Z,26.54
2023-03-01T00:06:02.769Z,25.69
2023-03-01T00:08:31.118Z,26.13
2023-03-01T00:11:05.318Z,26.10
2023-03-01T00:13:32.348Z,25.68
2023-03-01T00:15:59.245Z,24.86
2023-03-01T00:18:26.316Z,24.65
2023-03-01T00:20:54.652Z,27.68
2023-03-01T00:23:22.256Z,26.08
2023-03-01T00:25:50.339Z,24.44
2023-03-01T00:28:17.553Z,24.14
2023-03-01T00:30:44.689Z,24.72
2023-03-01T00:33:11.576Z,27.63
2023-03-01T00:35:39.096Z,25.94
2023-03-01T00:38:06.248Z,26.51
2023-03-01T00:40:35.684Z,25.79
2023-03-01T00:43:03.315Z,24.46
2023-03-01T00:45:31.962Z,27.63
2023-03-01T00:47:59.213Z,28.64
2023-03-01T00:50:26.686Z,25.40
2023-03-01T00:52:55.093Z,25.40
2023-03-01T00:55:22.679Z,27.97
2023-03-01T00:57:49.720Z,25.27
2023-03-01T01:00:17.203Z,23.61
2023-03-01T01:02:43.903Z,25.07
2023-03-01T01:05:11.706Z,24.58
2023-03-01T01:07:38.870Z,24.64
2023-03-01T01:10:06.530Z,24.38
2023-03-01T01:12:33.974Z,24.41
2023-03-01T01:15:00.672Z,23.35
2023-03-01T01:17:27.670Z,25.11
2023-03-01T01:19:54.416Z,25.16
2023-03-01T01:22:21.105Z,25.38
2023-03-01T01:24:47.854Z,25.15
2023-03-01T01:27:14.584Z,24.27
2023-03-01T01:29:43.114Z,25.58
2023-03-01T01:32:09.925Z,24.75
2023-03-01T01:34:37.118Z,24.53
2023-03-01T01:37:04.318Z,25.32
2023-03-01T01:39:31.072Z,24.66
2023-03-01T01:41:58.184Z,24.74
2023-03-01T01:44:28.344Z,24.10
2023-03-01T01:47:05.058Z,25.13
2023-03-01T01:49:42.100Z,24.79
2023-03-01T01:52:12.313Z,27.65
2023-03-01T01:54:47.991Z,26.14
2023-03-01T01:57:20.859Z,27.65
2023-03-01T01:59:53.468Z,27.01
2023-03-01T02:02:21.309Z,26.72
2023-03-01T02:04:51.791Z,25.21
2023-03-01T02:07:22.625Z,27.55
2023-03-01T02:09:53.394Z,26.21
2023-03-01T02:12:24.996Z,26.69
2023-03-01T02:14:51.927Z,24.11
2023-03-01T02:17:19.879Z,26.39
2023-03-01T02:20:17.752Z,25.49
2023-03-01T02:22:45.930Z,24.59
2023-03-01T02:25:41.119Z,23.88
2023-03-01T02:28:17.046Z,28.08
2023-03-01T02:31:04.610Z,26.46
2023-03-01T02:33:34.042Z,24.19
2023-03-01T02:36:04.964Z,23.44
2023-03-01T02:38:33.057Z,24.62
2023-03-01T02:41:01.645Z,25.07
2023-03-01T02:43:32.525Z,24.44
2023-03-01T02:46:04.780Z,24.60
2023-03-01T02:48:45.536Z,22.13
2023-03-01T02:51:29.015Z,22.50
2023-03-01T02:54:17.478Z,28.80
2023-03-01T02:56:49.871Z,26.96
2023-03-01T02:59:22.269Z,25.10
2023-03-01T03:01:49.444Z,24.65
2023-03-01T03:04:21.894Z,24.23
2023-03-01T03:06:52.060Z,24.89
2023-03-01T03:09:19.556Z,23.93
2023-03-01T03:11:47.046Z,23.80
2023-03-01T03:14:16.974Z,23.20
2023-03-01T03:16:49.145Z,23.48
2023-03-01T03:19:17.684Z,24.00
2023-03-01T03:21:44.904Z,22.71
2023-03-01T03:24:11.643Z,22.65
2023-03-01T03:26:38.519Z,24.17
2023-03-01T03:29:05.431Z,25.07
2023-03-01T03:31:32.160Z,23.79
2023-03-01T03:34:00.108Z,24.27
2023-03-01T03:36:27.013Z,22.90
2023-03-01T03:38:54.017Z,23.63
2023-03-01T03:41:20.794Z,23.52
2023-03-01T03:43:47.556Z,24.48
2023-03-01T03:46:14.809Z,24.57
2023-03-01T03:48:44.934Z,22.20
2023-03-01T03:51:14.539Z,23.72
2023-03-01T03:53:41.934Z,23.16
2023-03-01T03:56:09.259Z,24.33
2023-03-01T03:58:36.725Z,25.98
2023-03-01T04:01:04.318Z,23.78
2023-03-01T04:03:33.159Z,24.07
2023-03-01T04:06:01.336Z,25.01
2023-03-01T04:08:29.597Z,24.74
2023-03-01T04:11:22.175Z,25.27
2023-03-01T04:13:49.519Z,25.81
2023-03-01T04:16:16.606Z,25.37
2023-03-01T04:18:43.773Z,24.07
2023-03-01T04:21:12.264Z,25.04
2023-03-01T04:23:39.794Z,23.93
2023-03-01T04:26:06.444Z,24.97
2023-03-01T04:28:37.040Z,24.16
2023-03-01T04:31:24.097Z,24.40
2023-03-01T04:33:53.725Z,24.41
2023-03-01T04:36:23.717Z,23.96
2023-03-01T04:38:51.306Z,23.75
2023-03-01T04:41:19.610Z,25.21
2023-03-01T04:43:46.728Z,26.61
2023-03-01T04:46:15.994Z,24.74
2023-03-01T04:48:45.371Z,24.41
2023-03-01T04:51:15.775Z,27.30
2023-03-01T04:53:44.166Z,26.07
2023-03-01T04:56:11.898Z,24.00
2023-03-01T04:58:39.043Z,24.82
2023-03-01T05:01:19.894Z,25.58
2023-03-01T05:03:49.494Z,26.09
2023-03-01T05:06:17.872Z,24.85
2023-03-01T05:08:45.443Z,24.44
2023-03-01T05:11:13.629Z,24.65
2023-03-01T05:13:41.227Z,24.81
2023-03-01T05:16:13.238Z,26.20
2023-03-01T05:18:41.800Z,25.36
2023-03-01T05:21:11.617Z,26.43
2023-03-01T05:23:39.050Z,27.21
2023-03-01T05:26:09.440Z,24.50
2023-03-01T05:28:38.968Z,25.76
2023-03-01T05:31:10.620Z,23.92
2023-03-01T05:33:39.163Z,24.70
2023-03-01T05:36:08.262Z,24.97
2023-03-01T05:38:35.190Z,25.69
2023-03-01T05:41:02.024Z,26.65
2023-03-01T05:43:34.929Z,24.28
2023-03-01T05:46:02.195Z,25.26
2023-03-01T05:48:30.649Z,26.89
2023-03-01T05:51:01.692Z,25.72
2023-03-01T05:53:28.364Z,26.25
2023-03-01T05:55:55.274Z,24.36
2023-03-01T05:58:22.734Z,25.24
2023-03-01T06:00:50.345Z,27.92
2023-03-01T06:03:18.655Z,28.01
2023-03-01T06:05:45.994Z,25.28
2023-03-01T06:08:13.320Z,24.48
2023-03-01T06:10:40.652Z,25.54
2023-03-01T06:13:07.732Z,26.62
2023-03-01T06:15:34.658Z,25.68
2023-03-01T06:18:01.404Z,26.42
2023-03-01T06:20:29.783Z,27.14
2023-03-01T06:22:56.890Z,26.74
2023-03-01T06:25:26.210Z,28.01
2023-03-01T06:27:55.982Z,27.96
2023-03-01T06:30:24.660Z,25.88
2023-03-01T06:32:51.412Z,26.26
2023-03-01T06:35:19.812Z,25.12
2023-03-01T06:37:48.163Z,26.31
2023-03-01T06:40:15.442Z,24.05
2023-03-01T06:42:43.655Z,24.53
2023-03-01T06:45:11.154Z,24.95
2023-03-01T06:47:37.820Z,26.72
2023-03-01T06:50:04.975Z,25.29
2023-03-01T06:52:31.850Z,23.39
2023-03-01T06:54:58.684Z,24.93
2023-03-01T06:57:25.964Z,23.89
2023-03-01T06:59:52.718Z,26.62
2023-03-01T07:02:19.544Z,23.12
2023-03-01T07:04:46.982Z,23.66
2023-03-01T07:07:13.918Z,24.63
2023-03-01T07:09:40.601Z,27.80
2023-03-01T07:12:08.981Z,27.52
2023-03-01T07:14:35.710Z,28.10
2023-03-01T07:17:02.562Z,25.93
2023-03-01T07:19:29.384Z,22.77
2023-03-01T07:21:56.971Z,23.23
2023-03-01T07:24:24.268Z,23.61
2023-03-01T07:26:52.497Z,23.34
2023-03-01T07:29:19.503Z,25.16
2023-03-01T07:31:46.926Z,24.90
2023-03-01T07:34:13.913Z,25.22
2023-03-01T07:36:44.271Z,24.39
2023-03-01T07:39:12.930Z,26.13
2023-03-01T07:41:40.071Z,29.01
2023-03-01T07:44:06.801Z,26.02
2023-03-01T07:46:33.694Z,26.57
2023-03-01T07:49:01.128Z,24.30
2023-03-01T07:51:28.045Z,24.59
2023-03-01T07:53:54.917Z,26.53
2023-03-01T07:56:23.086Z,28.33
2023-03-01T07:58:51.199Z,28.59
2023-03-01T08:01:21.029Z,29.58
2023-03-01T08:03:47.763Z,26.59
2023-03-01T08:06:18.274Z,24.74
2023-03-01T08:08:46.348Z,25.42
2023-03-01T08:11:16.227Z,25.68
2023-03-01T08:13:44.375Z,28.70
2023-03-01T08:16:14.104Z,27.53
2023-03-01T08:18:41.939Z,26.97
2023-03-01T08:21:12.119Z,24.21
2023-03-01T08:23:40.973Z,25.96
2023-03-01T08:26:19.525Z,25.10
2023-03-01T08:28:47.554Z,24.48
2023-03-01T08:31:16.565Z,24.40
2023-03-01T08:33:43.713Z,28.02
2023-03-01T08:36:10.823Z,24.12
2023-03-01T08:38:37.592Z,23.59
2023-03-01T08:41:04.949Z,27.19
2023-03-01T08:43:31.861Z,25.00
2023-03-01T08:45:58.910Z,25.78
2023-03-01T08:48:26.436Z,25.87
2023-03-01T08:50:53.189Z,27.69
2023-03-01T08:53:19.961Z,26.01
2023-03-01T08:55:46.857Z,26.97
2023-03-01T08:58:14.019Z,26.25
2023-03-01T09:00:41.238Z,24.91
2023-03-01T09:03:08.177Z,27.49
2023-03-01T09:05:35.578Z,22.46
2023-03-01T09:08:02.785Z,25.00
2023-03-01T09:10:29.797Z,26.81
2023-03-01T09:12:56.768Z,24.70
2023-03-01T09:15:23.602Z,23.63
2023-03-01T09:17:50.305Z,24.62
2023-03-01T09:20:17.845Z,25.91
2023-03-01T09:22:45.328Z,23.63
2023-03-01T09:25:12.165Z,22.72
2023-03-01T09:27:39.311Z,25.88
2023-03-01T09:30:06.951Z,25.92
2023-03-01T09:32:33.972Z,25.25
2023-03-01T09:35:05.878Z,26.98
2023-03-01T09:37:34.549Z,24.43
2023-03-01T09:40:02.392Z,24.36
2023-03-01T09:42:32.576Z,23.24
2023-03-01T09:45:02.262Z,24.52
2023-03-01T09:47:32.255Z,24.33
2023-03-01T09:50:34.547Z,23.62
2023-03-01T09:53:11.848Z,24.47
2023-03-01T09:55:44.239Z,22.32
2023-03-01T09:58:36.253Z,22.48
2023-03-01T10:01:32.838Z,23.54
2023-03-01T10:04:02.744Z,23.89
2023-03-01T10:06:34.851Z,24.90
2023-03-01T10:09:14.694Z,22.80
2023-03-01T10:11:57.522Z,22.70
2023-03-01T10:14:50.793Z,23.46
2023-03-01T10:17:41.097Z,23.10
2023-03-01T10:20:26.019Z,23.60
2023-03-01T10:22:53.694Z,23.69
2023-03-01T10:25:44.683Z,23.35
2023-03-01T10:28:17.864Z,20.48
2023-03-01T10:30:46.360Z,22.44
2023-03-01T10:33:23.288Z,22.44
2023-03-01T10:35:50.477Z,23.34
2023-03-01T10:38:18.917Z,23.60
2023-03-01T10:41:02.916Z,21.57
2023-03-01T10:43:44.833Z,22.38
2023-03-01T10:46:43.745Z,25.39
2023-03-01T10:49:20.496Z,25.59
2023-03-01T10:51:51.221Z,23.59
2023-03-01T10:54:30.380Z,23.36
2023-03-01T10:56:59.790Z,22.18
2023-03-01T10:59:38.840Z,23.48
2023-03-01T11:02:25.136Z,22.28
2023-03-01T11:05:20.661Z,25.54
2023-03-01T11:07:59.825Z,23.30
2023-03-01T11:10:36.202Z,24.13
2023-03-01T11:13:16.903Z,24.78
2023-03-01T11:15:59.038Z,23.29
2023-03-01T11:18:46.144Z,24.51
2023-03-01T11:21:16.889Z,21.75
2023-03-01T11:23:47.028Z,24.60
2023-03-01T11:26:16.747Z,21.83
2023-03-01T11:28:46.517Z,20.86
2023-03-01T11:31:15.222Z,21.43
2023-03-01T11:34:00.678Z,22.75
2023-03-01T11:36:54.726Z,22.32
2023-03-01T11:40:06.112Z,22.29
2023-03-01T11:42:48.188Z,23.00
2023-03-01T11:45:15.392Z,21.76
2023-03-01T11:47:58.052Z,20.65
2023-03-01T11:50:42.244Z,21.36
2023-03-01T11:53:34.220Z,21.37
2023-03-01T11:56:10.164Z,21.99
2023-03-01T11:59:18.737Z,21.35
2023-03-01T12:01:54.677Z,21.22
2023-03-01T12:04:48.739Z,25.72
2023-03-01T12:07:21.898Z,24.67
2023-03-01T12:10:21.500Z,24.57
2023-03-01T12:13:03.937Z,26.95
2023-03-01T12:15:49.989Z,24.45
2023-03-01T12:19:01.028Z,23.21
2023-03-01T12:21:49.843Z,25.53
2023-03-01T12:24:28.566Z,19.76
2023-03-01T12:27:04.358Z,22.70
2023-03-01T12:29:50.556Z,21.70
2023-03-01T12:32:36.418Z,22.13
2023-03-01T12:35:32.460Z,23.77
2023-03-01T12:38:14.809Z,23.08
2023-03-01T12:41:25.480Z,25.77
2023-03-01T12:44:02.582Z,24.88
2023-03-01T12:46:35.846Z,24.47
2023-03-01T12:49:17.591Z,22.34
2023-03-01T12:52:04.076Z,21.39
2023-03-01T12:54:34.506Z,23.58
2023-03-01T12:57:10.991Z,24.50
2023-03-01T12:59:59.471Z,25.60
2023-03-01T13:02:39.689Z,24.58
2023-03-01T13:05:31.519Z,23.87
2023-03-01T13:08:11.804Z,22.30
2023-03-01T13:10:49.690Z,23.81
2023-03-01T13:13:23.090Z,21.09
2023-03-01T13:15:54.692Z,23.17
2023-03-01T13:18:23.108Z,22.78
2023-03-01T13:20:49.776Z,21.36
2023-03-01T13:23:22.794Z,22.16
2023-03-01T13:26:01.488Z,23.74
2023-03-01T13:28:49.929Z,20.49
2023-03-01T13:31:16.820Z,22.15
2023-03-01T13:33:48.637Z,22.55
2023-03-01T13:36:31.385Z,22.69
2023-03-01T13:39:01.040Z,23.67
2023-03-01T13:41:40.237Z,23.26
2023-03-01T13:44:33.102Z,21.36
2023-03-01T13:47:18.463Z,22.98
2023-03-01T13:50:04.589Z,22.40
2023-03-01T13:53:00.432Z,20.79
2023-03-01T13:55:37.556Z,17.09
2023-03-01T13:58:16.401Z,19.38
2023-03-01T14:00:43.509Z,21.04
2023-03-01T14:03:21.095Z,21.71
2023-03-01T14:06:16.204Z,18.13
2023-03-01T14:08:44.938Z,19.42
2023-03-01T14:11:26.447Z,22.73
2023-03-01T14:14:13.510Z,22.17
2023-03-01T14:17:17.443Z,20.18
2023-03-01T14:19:47.855Z,19.33
2023-03-01T14:22:18.488Z,21.13
2023-03-01T14:24:51.450Z,20.87
2023-03-01T14:27:18.740Z,24.81
2023-03-01T14:29:56.439Z,23.01
2023-03-01T14:32:27.270Z,20.73
2023-03-01T14:34:55.318Z,21.17
2023-03-01T14:37:29.906Z,22.24
2023-03-01T14:39:57.768Z,20.86
2023-03-01T14:42:28.341Z,20.48
2023-03-01T14:44:58.037Z,20.21
2023-03-01T14:47:36.810Z,18.05
2023-03-01T14:50:27.336Z,16.95
2023-03-01T14:52:58.234Z,18.35
2023-03-01T14:55:35.891Z,17.28
2023-03-01T14:58:07.560Z,17.64
2023-03-01T15:00:36.594Z,17.21
2023-03-01T15:03:18.828Z,18.25
2023-03-01T15:05:45.832Z,18.55
2023-03-01T15:08:22.434Z,18.03
2023-03-01T15:11:20.553Z,18.23
2023-03-01T15:13:48.303Z,17.96
2023-03-01T15:16:18.317Z,17.56
2023-03-01T15:18:52.641Z,18.16
2023-03-01T15:21:34.216Z,17.84
2023-03-01T15:24:05.971Z,17.36
2023-03-01T15:26:38.731Z,17.56
2023-03-01T15:29:05.981Z,17.78
2023-03-01T15:31:39.451Z,18.43
2023-03-01T15:34:31.419Z,19.72
2023-03-01T15:37:01.645Z,18.75
2023-03-01T15:39:38.340Z,20.46
2023-03-01T15:42:12.455Z,19.00
2023-03-01T15:44:48.356Z,19.04
2023-03-01T15:47:28.119Z,20.18
2023-03-01T15:49:56.434Z,19.71
2023-03-01T15:52:31.814Z,18.42
2023-03-01T15:55:04.912Z,19.34
2023-03-01T15:57:31.870Z,20.51
2023-03-01T15:59:58.632Z,20.34
2023-03-01T16:02:25.614Z,21.09
2023-03-01T16:04:52.846Z,20.37
2023-03-01T16:07:19.737Z,21.68
2023-03-01T16:09:47.140Z,20.55
2023-03-01T16:12:18.301Z,21.17
2023-03-01T16:14:44.995Z,20.63
2023-03-01T16:17:11.692Z,20.67
2023-03-01T16:19:39.106Z,20.58
2023-03-01T16:22:06.535Z,22.93
2023-03-01T16:24:33.750Z,22.55
2023-03-01T16:27:00.485Z,22.11
2023-03-01T16:29:27.286Z,21.62
2023-03-01T16:31:54.225Z,22.72
2023-03-01T16:34:22.855Z,23.60
2023-03-01T16:36:50.160Z,24.84
2023-03-01T16:39:17.613Z,23.33
2023-03-01T16:41:44.539Z,23.51
2023-03-01T16:44:11.520Z,24.65
2023-03-01T16:46:38.348Z,23.22
2023-03-01T16:49:05.118Z,23.43
2023-03-01T16:51:33.943Z,23.19
2023-03-01T16:54:00.738Z,21.15
2023-03-01T16:56:27.587Z,22.00
2023-03-01T16:58:54.465Z,23.18
2023-03-01T17:01:25.460Z,22.76
2023-03-01T17:03:53.000Z,22.62
2023-03-01T17:06:24.584Z,22.34
2023-03-01T17:08:52.039Z,20.44
2023-03-01T17:11:20.439Z,21.82
2023-03-01T17:13:48.866Z,21.12
2023-03-01T17:16:18.904Z,20.72
2023-03-01T17:18:46.925Z,21.55
2023-03-01T17:21:14.393Z,21.30
2023-03-01T17:23:43.721Z,20.55
2023-03-01T17:26:10.597Z,21.37
2023-03-01T17:28:38.918Z,20.64
2023-03-01T17:31:07.360Z,23.13
2023-03-01T17:33:34.435Z,21.04
2023-03-01T17:36:02.034Z,20.29
2023-03-01T17:38:28.842Z,20.47
2023-03-01T17:40:55.570Z,21.36
2023-03-01T17:43:22.572Z,21.27
2023-03-01T17:45:52.464Z,21.31
2023-03-01T17:48:19.521Z,21.42
2023-03-01T17:50:47.230Z,20.50
2023-03-01T17:53:14.442Z,21.72
2023-03-01T17:55:43.300Z,21.78
2023-03-01T17:58:13.032Z,20.65
2023-03-01T18:00:40.349Z,20.76
2023-03-01T18:03:07.756Z,20.43
2023-03-01T18:05:36.652Z,20.36
2023-03-01T18:08:04.141Z,21.89
2023-03-01T18:10:32.606Z,22.00
2023-03-01T18:12:59.690Z,23.61
2023-03-01T18:15:26.475Z,21.32
2023-03-01T18:17:53.827Z,20.96
2023-03-01T18:20:21.170Z,20.71
2023-03-01T18:22:48.930Z,21.58
2023-03-01T18:25:15.689Z,20.20
2023-03-01T18:27:42.540Z,19.97
2023-03-01T18:30:11.635Z,23.19
2023-03-01T18:32:39.806Z,22.22
2023-03-01T18:35:07.982Z,22.18
2023-03-01T18:37:34.993Z,21.57
2023-03-01T18:40:01.927Z,21.96
2023-03-01T18:42:28.663Z,20.73
2023-03-01T18:44:55.418Z,21.34
2023-03-01T18:47:22.966Z,20.12
2023-03-01T18:49:49.979Z,20.57
2023-03-01T18:52:16.793Z,20.07
2023-03-01T18:54:43.577Z,20.57
2023-03-01T18:57:10.289Z,20.38
2023-03-01T18:59:38.054Z,20.10
2023-03-01T19:02:05.163Z,21.35
2023-03-01T19:04:32.082Z,24.33
2023-03-01T19:07:02.097Z,21.42
2023-03-01T19:09:29.193Z,20.97
2023-03-01T19:11:58.888Z,24.24
2023-03-01T19:14:25.836Z,20.99
2023-03-01T19:16:53.375Z,22.39
2023-03-01T19:19:20.841Z,22.94
2023-03-01T19:21:59.294Z,21.46
2023-03-01T19:24:31.814Z,21.97
2023-03-01T19:26:58.593Z,21.35
2023-03-01T19:29:25.436Z,24.28
2023-03-01T19:31:52.310Z,21.30
2023-03-01T19:34:19.375Z,20.81
2023-03-01T19:36:48.240Z,21.16
2023-03-01T19:39:14.959Z,21.94
2023-03-01T19:41:42.625Z,23.62
2023-03-01T19:44:10.706Z,21.21
2023-03-01T19:46:38.858Z,20.33
2023-03-01T19:49:06.077Z,20.76
2023-03-01T19:51:36.123Z,19.90
2023-03-01T19:54:04.614Z,21.50
2023-03-01T19:56:31.923Z,21.09
2023-03-01T19:59:00.671Z,21.45
2023-03-01T20:01:29.851Z,20.71
2023-03-01T20:03:56.676Z,20.83
2023-03-01T20:06:25.637Z,20.79
2023-03-01T20:08:52.788Z,20.80
2023-03-01T20:11:19.944Z,22.23
2023-03-01T20:13:47.473Z,22.17
2023-03-01T20:16:17.403Z,22.85
2023-03-01T20:18:44.411Z,22.33
2023-03-01T20:21:22.739Z,21.05
2023-03-01T20:23:50.710Z,20.91
2023-03-01T20:26:20.064Z,20.56
2023-03-01T20:28:48.640Z,20.20
2023-03-01T20:31:17.936Z,20.64
2023-03-01T20:33:44.967Z,22.14
2023-03-01T20:36:12.194Z,25.24
2023-03-01T20:38:39.313Z,23.13
2023-03-01T20:41:09.404Z,22.83
2023-03-01T20:43:37.611Z,22.78
2023-03-01T20:46:11.377Z,23.14
2023-03-01T20:48:39.332Z,23.17
2023-03-01T20:51:07.691Z,25.08
2023-03-01T20:53:35.179Z,22.14
2023-03-01T20:56:04.139Z,23.63
2023-03-01T20:58:33.000Z,26.17
2023-03-01T21:00:59.962Z,24.60
2023-03-01T21:03:26.963Z,23.44
2023-03-01T21:06:02.457Z,23.17
2023-03-01T21:08:30.537Z,22.22
2023-03-01T21:10:57.988Z,21.42
2023-03-01T21:13:26.484Z,24.13
2023-03-01T21:16:03.362Z,23.86
2023-03-01T21:18:31.595Z,22.67
2023-03-01T21:21:04.908Z,23.87
2023-03-01T21:23:34.492Z,24.82
2023-03-01T21:26:05.692Z,27.80
2023-03-01T21:28:34.391Z,25.93
2023-03-01T21:31:10.917Z,24.23
2023-03-01T21:33:39.950Z,27.47
2023-03-01T21:36:09.995Z,25.14
2023-03-01T21:38:42.009Z,24.98
2023-03-01T21:41:11.521Z,24.24
2023-03-01T21:43:40.138Z,23.16
2023-03-01T21:46:11.015Z,24.67
2023-03-01T21:48:39.905Z,25.76
2023-03-01T21:51:08.288Z,23.65
2023-03-01T21:53:35.989Z,22.91
2023-03-01T21:56:02.884Z,24.03
2023-03-01T21:58:31.563Z,23.63
2023-03-01T22:01:07.144Z,23.95
2023-03-01T22:03:33.912Z,26.33
2023-03-01T22:06:05.042Z,27.21
2023-03-01T22:08:31.764Z,26.93
2023-03-01T22:11:01.831Z,25.39
2023-03-01T22:13:28.572Z,26.18
2023-03-01T22:15:55.278Z,27.17
2023-03-01T22:18:22.594Z,27.30
2023-03-01T22:20:49.354Z,25.85
2023-03-01T22:23:16.233Z,26.92
2023-03-01T22:25:42.997Z,27.91
2023-03-01T22:28:10.202Z,30.80
2023-03-01T22:30:37.170Z,30.04
2023-03-01T22:33:04.315Z,29.91
2023-03-01T22:35:31.199Z,30.02
2023-03-01T22:37:57.947Z,27.35
2023-03-01T22:40:25.520Z,26.22
2023-03-01T22:42:52.505Z,26.89
2023-03-01T22:45:19.233Z,27.25
2023-03-01T22:47:45.915Z,26.95
2023-03-01T22:50:14.965Z,28.91
2023-03-01T22:52:41.862Z,27.63
2023-03-01T22:55:09.157Z,28.48
2023-03-01T22:57:36.041Z,24.24
2023-03-01T23:00:13.090Z,25.49
2023-03-01T23:02:43.538Z,24.14
2023-03-01T23:05:11.005Z,29.07
2023-03-01T23:07:37.906Z,26.26
2023-03-01T23:10:06.246Z,26.23
2023-03-01T23:12:33.396Z,28.19
2023-03-01T23:15:00.174Z,26.60
2023-03-01T23:17:27.059Z,24.45
2023-03-01T23:19:53.898Z,26.04
2023-03-01T23:22:21.002Z,25.84
2023-03-01T23:24:48.884Z,28.75
2023-03-01T23:27:19.264Z,30.73
2023-03-01T23:29:45.981Z,27.83
2023-03-01T23:32:13.394Z,28.84
2023-03-01T23:34:43.791Z,27.70
2023-03-01T23:37:10.976Z,29.45
2023-03-01T23:39:38.598Z,29.44
2023-03-01T23:42:05.789Z,29.44
2023-03-01T23:44:32.855Z,26.84
2023-03-01T23:46:59.575Z,26.33
2023-03-01T23:49:27.881Z,31.16
2023-03-01T23:51:54.699Z,28.66
2023-03-01T23:54:23.692Z,27.63
2023-03-01T23:56:50.998Z,28.58
2023-03-01T23:59:22.063Z,26.12
